Weather observations for the past three days for
Manhattan, Manhattan Municipal Airport
Imperial (Metric)
Date Time (cdt) Wind (mph) Vis. (mi.) Weather Sky Cond. Temperature (ºF) Relative Humidity Wind Chill (°F) Heat Index (°F) Pressure Precipitation (in)
Air Dwpt 6 hour altimeter (in) sea level (mb) 1 hr 3 hr 6 hr
Max. Min.
08 07:52 SW 8 10.00 Fair CLR 59 43 56% 29.77 1007.8
08 06:52 SW 13 10.00 Fair CLR 60.1 41 63 51.1 50% 29.76 1007.2
08 05:52 SW 12 10.00 A Few Clouds FEW120 61 42.1 50% 29.75 1006.7
08 04:52 SW 16 G 26 10.00 Partly Cloudy FEW060 SCT120 62.1 42.1 48% 29.75 1006.6
08 03:52 SW 12 10.00 Mostly Cloudy BKN110 60.1 43 53% 29.76 1007.0
08 02:52 Calm 10.00 Fair CLR 54 42.1 64% 29.78 1007.9
08 01:52 S 8 10.00 Mostly Cloudy BKN120 62.1 39.9 44% 29.8 1008.4
08 00:52 SW 9 10.00 Partly Cloudy SCT110 62.1 41 73 55 46% 29.82 1009.2
07 23:52 SW 3 10.00 Overcast SCT070 OVC095 61 46 58% 29.84 1010.0
07 22:52 Calm 10.00 Overcast FEW070 SCT085 OVC110 60.1 46.9 62% 29.83 1009.7
07 21:52 Calm 10.00 Fair CLR 55 46 72% 29.81 1009.4
07 20:52 Calm 10.00 Fair CLR 59 46.9 64% 29.79 1008.6
07 19:52 Calm 10.00 Fair CLR 68 54 61% 29.77 1007.9
07 18:52 Calm 10.00 Fair CLR 72 50 75.9 66.9 46% 29.78 1008.1
07 17:52 SW 10 10.00 Fair CLR 75 41 29% 77 29.78 1008.4
07 16:52 SW 13 G 23 10.00 Fair CLR 75.9 39.9 27% 77 29.8 1008.9
07 15:52 SW 15 10.00 Fair CLR 73.9 37.9 27% 29.83 1009.8
07 14:52 SW 21 G 29 10.00 Fair and Breezy CLR 73 39 29% 29.86 1010.9
07 13:52 SW 14 G 26 10.00 Fair CLR 70 39.9 34% 29.89 1011.9
07 12:52 SW 20 G 25 10.00 Fair CLR 68 41 68 39 38% 29.92 1013.0
07 11:52 SW 18 G 26 10.00 Fair CLR 64.9 41 42% 29.95 1014.0
07 10:52 SW 18 G 29 10.00 Fair CLR 61 41 48% 29.97 1014.7
07 09:52 SW 18 G 29 10.00 Fair CLR 57 42.1 58% 29.99 1015.6
07 08:52 SW 15 G 22 10.00 Fair CLR 53.1 42.1 66% 30.01 1016.4
07 07:52 SW 8 10.00 Fair CLR 46.9 42.1 83% 44 30.02 1016.6
07 06:52 SW 3 10.00 Fair CLR 39 37.9 46.9 36 96% 30.02 1016.6
07 05:52 Calm 10.00 Fair CLR 37 36 96% 30.02 1016.8
07 04:52 SW 5 10.00 Fair CLR 42.1 39 89% 40 30.03 1017.0
07 03:52 SW 7 10.00 Fair CLR 43 39 86% 39 30.03 1017.2
07 02:52 SW 3 10.00 Fair CLR 43 39 86% 30.05 1017.7
07 01:52 SW 6 10.00 Fair CLR 45 39 80% 42 30.06 1018.1
07 00:52 SW 5 10.00 Fair CLR 46 39 60.1 46 77% 44 30.07 1018.4
06 23:52 SW 3 10.00 Fair CLR 48.9 39.9 71% 30.07 1018.5
06 22:52 W 5 10.00 Fair CLR 50 37.9 63% 49 30.07 1018.6
06 21:52 SW 5 10.00 Fair CLR 51.1 37.9 61% 30.07 1018.5
06 20:52 W 5 10.00 Fair CLR 50 37 61% 49 30.05 1017.9
06 18:52 SW 8 10.00 Fair CLR 60.1 30 61 55.9 32% 30.05 1017.6
06 17:52 N 3 10.00 Fair CLR 60.1 28 30% 30.05 1017.8
06 16:52 Vrbl 7 10.00 Mostly Cloudy BKN070 60.1 30 32% 30.06 1017.9
06 15:52 Vrbl 3 10.00 Fair CLR 59 28 31% 30.08 1018.7
06 14:52 Vrbl 3 10.00 Mostly Cloudy BKN065 57 28.9 34% 30.11 1019.7
06 13:52 N 5 10.00 Partly Cloudy SCT060 57 32 39% 30.11 1019.7
06 12:52 N 6 10.00 A Few Clouds FEW055 55.9 32 55.9 44.1 40% 30.12 1020.0
06 11:52 Calm 10.00 Fair CLR 54 33.1 45% 30.13 1020.6
06 10:52 Vrbl 5 10.00 Overcast OVC085 51.1 37.9 61% 30.13 1020.6
06 09:52 W 6 10.00 Mostly Cloudy BKN095 51.1 39 64% 30.13 1020.6
06 08:52 W 6 10.00 Overcast OVC100 48.9 37.9 66% 47 30.12 1020.1
06 07:52 W 5 10.00 Mostly Cloudy BKN110 46 39.9 79% 44 30.1 1019.3
06 06:52 W 3 10.00 Fair CLR 44.1 37.9 48.9 43 79% 30.05 1017.9
06 05:52 Calm 10.00 Overcast OVC110 44.1 37.9 79% 30.04 1017.3
06 04:52 NE 8 10.00 Overcast OVC050 46.9 35.1 63% 44 30.06 1018.1
06 03:52 Calm 10.00 Overcast OVC055 46.9 39.9 77% 30.04 1017.4
06 02:52 NW 5 10.00 Overcast OVC100 46.9 39.9 77% 45 30.02 1016.8
06 01:52 W 6 10.00 Overcast OVC095 46.9 39.9 77% 45 30.01 1016.4
06 00:52 Calm 10.00 Overcast OVC090 48 37.9 54 46.9 68% 29.97 1015.1
05 23:52 NE 7 10.00 Overcast SCT060 BKN085 OVC110 46.9 39 74% 44 29.97 1015.2
05 22:52 Calm 10.00 Light Rain BKN055 OVC070 51.1 39.9 66% 30 1016.1
05 21:52 Calm 10.00 Overcast OVC060 48.9 44.1 83% 29.97 1015.2
05 20:52 Calm 10.00 Overcast FEW060 OVC085 50 43 77% 29.92 1013.3
05 19:52 Calm 10.00 Overcast OVC080 52 39.9 64% 29.91 1013.0
05 18:52 N 5 10.00 Overcast OVC080 54 37.9 55 50 55% 29.9 1012.5
05 17:52 N 5 10.00 Overcast OVC080 55 36 49% 29.9 1012.5
05 16:52 N 9 10.00 Overcast OVC080 54 37.9 55% 29.9 1012.5
05 15:52 N 6 10.00 Overcast OVC080 54 42.1 64% 29.92 1013.3
05 14:52 Vrbl 3 10.00 Overcast OVC080 52 43 72% 29.93 1013.4
05 13:52 NE 3 10.00 Overcast OVC080 50 42.1 74% 29.94 1013.7
05 12:52 NE 8 10.00 Overcast OVC075 50 42.1 50 46.9 74% 47 29.94 1013.9
05 11:52 NE 6 10.00 Overcast OVC070 48.9 43 80% 47 29.95 1013.9
05 10:52 NE 9 10.00 Overcast FEW043 FEW065 OVC090 48 42.1 80% 44 29.92 1013.1
05 09:52 NE 10 8.00 Light Rain BKN060 OVC080 46.9 43 86% 43 29.93 1013.1
05 08:52 NE 9 10.00 Light Rain BKN060 OVC085 48 42.1 80% 44 29.92 1013.0
Date Time (cdt) Wind (mph) Vis. (mi.) Weather Sky Cond. Air Dwpt Max. Min. Relative Humidity Wind Chill (°F) Heat Index (°F) altimeter (in) sea level (mb) 1 hr 3 hr 6 hr
6 hour
Temperature (ºF) Pressure Precipitation (in)